Weatogue, Connecticut
Current Conditions -  °F | °C
As of 8:51 PM on Monday 20 Oct 2014 (Local Time) from KBDL Reporting Station
Overcast Overcast  
Wind Chill: 50°   Ceiling: 15000
Heat Index: 50°   Visibility: 10mi
Dew Point: 39°   Wind: 5mph
Humidity: 66%   Direction: 160°SSE
Pressure: 29.98"   Gusts: NA
Location:  41.84°N, 72.83°W
Report Text: KBDL 210051Z 16004KT 10SM OVC150 10/04 A2998 RMK AO2 SLP153 T01000039
Loading
Personal Weather Stations






























Interactive Weather Map
Tropical Storm Tracking
New forecast layout! Learn more

10-Day Weather Forecast

Advertisements
Track Severe Weather on mobile